Time;durP1;ratioP1;P1;durP2;ratioP2;P2;SDS_P1;SDS_P2;PMS_P1;PMS_P2;Temp;Humidity;BMP_temperature;BMP_pressure;BME280_temperature;BME280_humidity;BME280_pressure;Samples;Min_cycle;Max_cycle;Signal;HPM_P1;HPM_P2
2021/01/03 00:01:21;;;;;;;252.40;106.40;;;;;;;;;;641727;216;951295;-68
2021/01/03 00:03:47;;;;;;;235.60;107.20;;;;;;;;;;643879;216;919188;-68
2021/01/03 00:06:13;;;;;;;240.83;109.27;;;;;;;;;;650672;216;919232;-68
2021/01/03 00:08:39;;;;;;;255.27;119.50;;;;;;;;;;643262;215;1182371;-69
2021/01/03 00:11:05;;;;;;;234.23;108.00;;;;;;;;;;645820;216;919595;-71
2021/01/03 00:13:30;;;;;;;264.43;120.10;;;;;;;;;;647618;216;918974;-68
2021/01/03 00:15:56;;;;;;;268.47;120.17;;;;;;;;;;644931;216;918355;-68
2021/01/03 00:18:22;;;;;;;256.30;115.40;;;;;;;;;;642050;216;919110;-69
2021/01/03 00:20:48;;;;;;;264.77;118.43;;;;;;;;;;644720;215;918957;-68
2021/01/03 00:23:14;;;;;;;247.70;115.15;;;;;;;;;;646358;216;918281;-68
2021/01/03 00:25:40;;;;;;;272.07;122.63;;;;;;;;;;642313;216;919005;-68
2021/01/03 00:28:06;;;;;;;276.80;124.57;;;;;;;;;;640644;216;918970;-68
2021/01/03 00:30:31;;;;;;;251.60;120.53;;;;;;;;;;649676;217;918706;-68
2021/01/03 00:32:58;;;;;;;287.00;128.37;;;;;;;;;;642754;216;1007758;-67
2021/01/03 00:35:25;;;;;;;239.97;110.67;;;;;;;;;;645565;215;919884;-67
2021/01/03 00:37:50;;;;;;;264.70;112.53;;;;;;;;;;647190;215;918259;-68
2021/01/03 00:40:16;;;;;;;280.97;120.63;;;;;;;;;;644373;215;918449;-67
2021/01/03 00:42:42;;;;;;;266.30;118.43;;;;;;;;;;644115;217;918347;-68
2021/01/03 00:45:09;;;;;;;253.07;109.13;;;;;;;;;;641912;216;918009;-68
2021/01/03 00:47:34;;;;;;;265.97;109.83;;;;;;;;;;645802;217;919465;-68
2021/01/03 00:50:00;;;;;;;237.70;107.30;;;;;;;;;;642018;215;918868;-67
2021/01/03 00:52:26;;;;;;;245.90;103.80;;;;;;;;;;642880;217;919129;-68
2021/01/03 00:54:52;;;;;;;220.50;105.60;;;;;;;;;;647202;215;957279;-68
2021/01/03 00:57:18;;;;;;;214.43;98.37;;;;;;;;;;645378;215;919018;-68
2021/01/03 00:59:44;;;;;;;229.20;96.23;;;;;;;;;;641490;216;917834;-69
2021/01/03 01:02:10;;;;;;;199.90;91.00;;;;;;;;;;648995;217;918977;-68
2021/01/03 01:04:35;;;;;;;188.10;91.57;;;;;;;;;;641839;216;918990;-68
2021/01/03 01:07:01;;;;;;;193.17;90.40;;;;;;;;;;643786;217;919190;-68
2021/01/03 01:09:27;;;;;;;210.60;93.00;;;;;;;;;;646135;217;919819;-68
2021/01/03 01:11:53;;;;;;;209.93;88.97;;;;;;;;;;644078;216;920570;-67
2021/01/03 01:14:19;;;;;;;211.30;96.83;;;;;;;;;;639642;215;1202934;-68
2021/01/03 01:16:45;;;;;;;219.30;96.10;;;;;;;;;;639935;215;916432;-69
2021/01/03 01:19:11;;;;;;;202.83;97.53;;;;;;;;;;648198;216;915931;-70
2021/01/03 01:21:37;;;;;;;208.60;98.83;;;;;;;;;;645671;215;916258;-67
2021/01/03 01:24:03;;;;;;;218.07;97.50;;;;;;;;;;644470;216;924400;-68
2021/01/03 01:26:29;;;;;;;193.57;94.53;;;;;;;;;;647246;217;918841;-68
2021/01/03 01:28:55;;;;;;;197.50;98.17;;;;;;;;;;644028;215;950856;-69
2021/01/03 01:31:21;;;;;;;208.10;101.70;;;;;;;;;;642956;217;919500;-67
2021/01/03 01:33:46;;;;;;;199.67;92.03;;;;;;;;;;649265;217;919915;-67
2021/01/03 01:36:12;;;;;;;200.53;97.37;;;;;;;;;;642442;215;919136;-67
2021/01/03 01:38:38;;;;;;;227.87;94.90;;;;;;;;;;644282;215;915445;-69
2021/01/03 01:41:04;;;;;;;217.97;94.90;;;;;;;;;;643305;215;914828;-68
2021/01/03 01:43:31;;;;;;;185.70;83.80;;;;;;;;;;646328;217;915630;-68
2021/01/03 01:45:56;;;;;;;188.57;88.17;;;;;;;;;;642510;216;919209;-68
2021/01/03 01:48:22;;;;;;;189.07;86.30;;;;;;;;;;645434;216;918003;-68
2021/01/03 01:50:48;;;;;;;170.57;82.40;;;;;;;;;;646426;216;918744;-68
2021/01/03 01:53:17;;;;;;;189.25;88.87;;;;;;;;;;644446;217;921897;-68
2021/01/03 01:55:43;;;;;;;198.17;81.93;;;;;;;;;;641640;216;919090;-68
2021/01/03 01:58:09;;;;;;;191.17;83.23;;;;;;;;;;649232;217;919256;-68
2021/01/03 02:00:34;;;;;;;166.97;83.43;;;;;;;;;;645204;217;919227;-69
2021/01/03 02:03:00;;;;;;;185.23;84.43;;;;;;;;;;642467;215;918758;-69
2021/01/03 02:05:36;;;;;;;186.00;85.73;;;;;;;;;;643188;217;928637;-68
2021/01/03 02:08:02;;;;;;;198.93;95.03;;;;;;;;;;647384;216;917834;-69
2021/01/03 02:10:29;;;;;;;183.70;85.23;;;;;;;;;;644205;215;919696;-68
2021/01/03 02:13:03;;;;;;;191.50;84.40;;;;;;;;;;641111;215;920165;-69
2021/01/03 02:15:29;;;;;;;189.02;84.45;;;;;;;;;;644569;215;915858;-68
2021/01/03 02:17:55;;;;;;;163.97;76.20;;;;;;;;;;646420;217;915476;-69
2021/01/03 02:20:21;;;;;;;167.63;71.10;;;;;;;;;;643319;216;947617;-69
2021/01/03 02:22:47;;;;;;;173.00;80.35;;;;;;;;;;642683;215;918206;-68
2021/01/03 02:25:13;;;;;;;164.17;74.17;;;;;;;;;;648465;215;933744;-69
2021/01/03 02:27:39;;;;;;;184.50;80.30;;;;;;;;;;643382;215;919234;-68
2021/01/03 02:30:05;;;;;;;180.70;82.57;;;;;;;;;;645785;216;919026;-68
2021/01/03 02:32:32;;;;;;;162.13;76.67;;;;;;;;;;643603;217;919122;-69
2021/01/03 02:34:58;;;;;;;157.20;77.50;;;;;;;;;;647682;217;917680;-68
2021/01/03 02:37:25;;;;;;;171.33;79.77;;;;;;;;;;642031;216;919787;-68
2021/01/03 02:39:51;;;;;;;197.50;79.30;;;;;;;;;;642770;216;919050;-68
2021/01/03 02:42:20;;;;;;;172.67;78.77;;;;;;;;;;646511;217;918277;-68
2021/01/03 02:44:46;;;;;;;185.27;74.17;;;;;;;;;;639571;216;1043025;-69
2021/01/03 02:47:12;;;;;;;167.60;77.97;;;;;;;;;;644540;216;918978;-68
2021/01/03 02:49:38;;;;;;;173.07;81.00;;;;;;;;;;642515;215;920233;-68
2021/01/03 02:52:04;;;;;;;154.50;73.17;;;;;;;;;;650246;217;918199;-69
2021/01/03 02:54:30;;;;;;;176.37;80.53;;;;;;;;;;643323;216;918662;-69
2021/01/03 02:56:56;;;;;;;157.67;77.20;;;;;;;;;;645162;216;919935;-68
2021/01/03 02:59:22;;;;;;;158.57;72.57;;;;;;;;;;645526;217;917686;-68
2021/01/03 03:01:48;;;;;;;168.03;73.03;;;;;;;;;;643865;216;917098;-70
2021/01/03 03:04:13;;;;;;;170.67;77.83;;;;;;;;;;642326;215;915617;-68
2021/01/03 03:06:39;;;;;;;161.53;73.10;;;;;;;;;;648383;216;917769;-69
2021/01/03 03:09:05;;;;;;;178.57;79.00;;;;;;;;;;642144;215;915913;-67
2021/01/03 03:11:31;;;;;;;185.12;84.25;;;;;;;;;;643808;217;918718;-68
2021/01/03 03:13:57;;;;;;;180.20;83.73;;;;;;;;;;641735;215;918698;-68
2021/01/03 03:16:23;;;;;;;189.80;79.23;;;;;;;;;;645059;216;918880;-69
2021/01/03 03:18:49;;;;;;;174.47;77.20;;;;;;;;;;642770;216;942633;-69
2021/01/03 03:21:17;;;;;;;192.83;85.87;;;;;;;;;;643512;215;922215;-68
2021/01/03 03:23:43;;;;;;;173.50;83.57;;;;;;;;;;648504;217;919710;-67
2021/01/03 03:26:09;;;;;;;182.50;83.15;;;;;;;;;;640806;216;919163;-68
2021/01/03 03:28:35;;;;;;;181.80;84.13;;;;;;;;;;643202;217;919141;-68
2021/01/03 03:31:01;;;;;;;174.60;85.00;;;;;;;;;;645145;215;1231626;-67
2021/01/03 03:33:27;;;;;;;208.67;88.13;;;;;;;;;;644999;216;919223;-68
2021/01/03 03:35:52;;;;;;;223.43;106.77;;;;;;;;;;642511;215;929774;-69
2021/01/03 03:38:20;;;;;;;212.07;99.70;;;;;;;;;;643845;215;921182;-68
2021/01/03 03:40:44;;;;;;;196.53;95.13;;;;;;;;;;645528;217;916917;-68
2021/01/03 03:43:10;;;;;;;192.33;89.03;;;;;;;;;;642087;216;919231;-68
2021/01/03 03:45:36;;;;;;;186.30;88.80;;;;;;;;;;642654;216;918553;-69
2021/01/03 03:48:02;;;;;;;199.68;98.75;;;;;;;;;;649373;216;918469;-68
2021/01/03 03:50:28;;;;;;;196.30;93.33;;;;;;;;;;641541;215;1178333;-68
2021/01/03 03:52:53;;;;;;;210.20;96.68;;;;;;;;;;643404;216;918358;-69
2021/01/03 03:55:19;;;;;;;206.10;96.50;;;;;;;;;;647696;216;918674;-69
2021/01/03 03:57:45;;;;;;;236.93;108.10;;;;;;;;;;645181;216;921896;-69
2021/01/03 04:00:12;;;;;;;217.63;102.00;;;;;;;;;;645009;217;918966;-69
2021/01/03 04:02:38;;;;;;;210.82;100.28;;;;;;;;;;647055;215;918787;-68
2021/01/03 04:05:04;;;;;;;233.63;107.40;;;;;;;;;;644899;217;920296;-68
2021/01/03 04:07:30;;;;;;;231.87;110.43;;;;;;;;;;641994;216;918809;-68
2021/01/03 04:09:56;;;;;;;257.17;109.07;;;;;;;;;;644599;216;942138;-69
2021/01/03 04:12:22;;;;;;;235.87;108.73;;;;;;;;;;638911;215;2807150;-68
2021/01/03 04:14:47;;;;;;;213.48;99.82;;;;;;;;;;643963;217;918910;-69
2021/01/03 04:17:13;;;;;;;222.87;105.37;;;;;;;;;;641578;215;917168;-68
2021/01/03 04:19:39;;;;;;;194.80;93.00;;;;;;;;;;646902;216;919178;-68
2021/01/03 04:22:05;;;;;;;224.03;100.20;;;;;;;;;;638929;216;919192;-69
2021/01/03 04:24:31;;;;;;;225.43;104.90;;;;;;;;;;644998;216;918422;-69
2021/01/03 04:26:59;;;;;;;224.30;101.67;;;;;;;;;;646304;216;918898;-68
2021/01/03 04:29:25;;;;;;;227.07;104.60;;;;;;;;;;648616;216;881364;-69
2021/01/03 04:32:07;;;;;;;237.53;103.90;;;;;;;;;;640623;215;917284;-69
2021/01/03 04:34:33;;;;;;;211.52;103.75;;;;;;;;;;643979;216;918658;-69
2021/01/03 04:36:59;;;;;;;221.77;108.03;;;;;;;;;;641909;215;957433;-68
2021/01/03 04:39:24;;;;;;;230.73;102.60;;;;;;;;;;647125;217;918325;-69
2021/01/03 04:41:50;;;;;;;229.47;104.10;;;;;;;;;;641739;217;918992;-69
2021/01/03 04:44:18;;;;;;;213.40;102.17;;;;;;;;;;641124;215;917355;-69
2021/01/03 04:46:44;;;;;;;238.73;110.87;;;;;;;;;;649097;216;912731;-70
2021/01/03 04:49:10;;;;;;;247.20;117.57;;;;;;;;;;643437;216;920509;-69
2021/01/03 04:51:41;;;;;;;220.87;111.30;;;;;;;;;;647979;216;921761;-70
2021/01/03 04:54:11;;;;;;;241.73;111.33;;;;;;;;;;642747;215;918867;-69
2021/01/03 04:56:47;;;;;;;230.60;107.80;;;;;;;;;;648114;217;920319;-69
2021/01/03 04:59:31;;;;;;;246.00;110.47;;;;;;;;;;647052;215;918684;-69
2021/01/03 05:02:14;;;;;;;231.13;107.40;;;;;;;;;;647955;215;919756;-68
2021/01/03 05:04:45;;;;;;;226.63;107.40;;;;;;;;;;644236;217;918135;-69
2021/01/03 05:07:12;;;;;;;258.17;117.10;;;;;;;;;;643878;217;915607;-69
2021/01/03 05:09:38;;;;;;;262.30;113.63;;;;;;;;;;642351;215;921910;-69
2021/01/03 05:12:05;;;;;;;247.83;109.63;;;;;;;;;;647608;216;917888;-69
2021/01/03 05:14:33;;;;;;;243.17;108.90;;;;;;;;;;638059;217;920768;-69
2021/01/03 05:16:59;;;;;;;238.63;107.90;;;;;;;;;;642971;216;1004418;-69
2021/01/03 05:19:25;;;;;;;212.07;102.12;;;;;;;;;;641197;216;1080076;-67
2021/01/03 05:21:50;;;;;;;237.40;109.30;;;;;;;;;;649070;215;1017591;-69
2021/01/03 05:24:16;;;;;;;231.67;102.40;;;;;;;;;;643454;215;916026;-69
2021/01/03 05:26:42;;;;;;;220.52;103.32;;;;;;;;;;644783;215;975589;-68
2021/01/03 05:29:08;;;;;;;233.37;102.13;;;;;;;;;;643010;217;918453;-69
2021/01/03 05:31:34;;;;;;;223.30;99.53;;;;;;;;;;643109;215;927421;-69
2021/01/03 05:34:01;;;;;;;238.90;107.37;;;;;;;;;;641944;215;913453;-69
2021/01/03 05:36:39;;;;;;;222.90;98.33;;;;;;;;;;642523;215;919410;-68
2021/01/03 05:39:03;;;;;;;229.50;105.23;;;;;;;;;;648749;215;912697;-69
2021/01/03 05:41:44;;;;;;;230.10;106.07;;;;;;;;;;640773;215;928012;-69
2021/01/03 05:44:10;;;;;;;245.60;106.13;;;;;;;;;;644530;215;916257;-69
2021/01/03 05:46:37;;;;;;;217.50;98.57;;;;;;;;;;637468;216;910778;-69
2021/01/03 05:49:03;;;;;;;214.70;96.60;;;;;;;;;;647988;217;916154;-69
2021/01/03 05:51:29;;;;;;;218.43;97.93;;;;;;;;;;643605;216;915677;-68
2021/01/03 05:53:56;;;;;;;216.73;97.50;;;;;;;;;;645552;215;915424;-69
2021/01/03 05:56:22;;;;;;;233.63;100.90;;;;;;;;;;641633;215;914615;-68
2021/01/03 05:58:48;;;;;;;210.07;96.40;;;;;;;;;;646955;217;914314;-69
2021/01/03 06:01:16;;;;;;;201.57;95.80;;;;;;;;;;640011;215;919122;-69
2021/01/03 06:03:42;;;;;;;236.27;109.30;;;;;;;;;;645706;216;919081;-69
2021/01/03 06:06:08;;;;;;;218.03;103.87;;;;;;;;;;648101;216;1020655;-69
2021/01/03 06:08:34;;;;;;;233.25;111.88;;;;;;;;;;645069;217;918626;-69
2021/01/03 06:11:00;;;;;;;205.40;97.10;;;;;;;;;;641524;216;917928;-68
2021/01/03 06:13:26;;;;;;;224.57;101.63;;;;;;;;;;649648;216;918084;-68
2021/01/03 06:15:53;;;;;;;224.47;103.60;;;;;;;;;;644207;217;919055;-67
2021/01/03 06:18:17;;;;;;;234.43;104.90;;;;;;;;;;645782;215;918858;-68
2021/01/03 06:20:43;;;;;;;209.17;102.97;;;;;;;;;;643437;217;918329;-68
2021/01/03 06:23:12;;;;;;;210.73;97.93;;;;;;;;;;647032;217;918508;-68
2021/01/03 06:25:56;;;;;;;250.57;111.40;;;;;;;;;;645351;216;915060;-69
2021/01/03 06:28:36;;;;;;;245.00;111.40;;;;;;;;;;641352;215;1007036;-68
2021/01/03 06:31:02;;;;;;;240.17;103.97;;;;;;;;;;645130;215;919957;-69
2021/01/03 06:33:44;;;;;;;234.10;109.70;;;;;;;;;;640912;215;947287;-68
2021/01/03 06:36:10;;;;;;;227.80;110.13;;;;;;;;;;644387;215;915887;-69
2021/01/03 06:38:53;;;;;;;240.83;113.33;;;;;;;;;;646843;217;918460;-68
2021/01/03 06:41:33;;;;;;;224.67;107.57;;;;;;;;;;648252;215;918929;-67
2021/01/03 06:44:03;;;;;;;229.33;101.23;;;;;;;;;;645744;216;919082;-68
2021/01/03 06:46:35;;;;;;;216.10;98.25;;;;;;;;;;645046;217;918718;-68
2021/01/03 06:49:06;;;;;;;206.43;101.70;;;;;;;;;;638295;215;1195465;-69
2021/01/03 06:51:32;;;;;;;203.03;98.63;;;;;;;;;;643097;217;934306;-68
2021/01/03 06:54:04;;;;;;;198.33;97.10;;;;;;;;;;645088;215;919455;-68
2021/01/03 06:56:31;;;;;;;219.60;94.17;;;;;;;;;;645109;217;918794;-69
2021/01/03 06:59:02;;;;;;;227.97;103.00;;;;;;;;;;638464;216;952741;-69
2021/01/03 07:01:28;;;;;;;208.07;99.00;;;;;;;;;;643560;216;918894;-70
2021/01/03 07:03:54;;;;;;;226.83;103.00;;;;;;;;;;644975;216;920542;-70
2021/01/03 07:06:20;;;;;;;221.98;99.70;;;;;;;;;;643007;217;918619;-69
2021/01/03 07:08:47;;;;;;;217.60;99.40;;;;;;;;;;642338;215;929098;-70
2021/01/03 07:11:18;;;;;;;212.40;96.73;;;;;;;;;;641879;217;921019;-69
2021/01/03 07:13:44;;;;;;;207.93;99.73;;;;;;;;;;644573;215;917648;-69
2021/01/03 07:16:10;;;;;;;216.20;96.20;;;;;;;;;;645951;216;917772;-69
2021/01/03 07:18:39;;;;;;;215.87;98.10;;;;;;;;;;641341;215;918312;-69
2021/01/03 07:21:19;;;;;;;207.60;100.73;;;;;;;;;;648015;216;918541;-69
2021/01/03 07:23:45;;;;;;;232.90;96.67;;;;;;;;;;644512;215;918922;-70
2021/01/03 07:26:29;;;;;;;208.17;103.73;;;;;;;;;;644543;214;918724;-71
2021/01/03 07:28:56;;;;;;;212.87;96.83;;;;;;;;;;641550;214;921712;-71
2021/01/03 07:31:32;;;;;;;212.50;95.70;;;;;;;;;;643596;216;918942;-70
2021/01/03 07:34:00;;;;;;;208.90;99.37;;;;;;;;;;640026;215;1115592;-71
2021/01/03 07:36:26;;;;;;;197.83;91.40;;;;;;;;;;644643;216;985399;-70
2021/01/03 07:38:57;;;;;;;211.63;97.73;;;;;;;;;;643926;216;918681;-71
2021/01/03 07:41:25;;;;;;;187.30;83.47;;;;;;;;;;642739;216;918898;-72
2021/01/03 07:43:53;;;;;;;256.90;128.17;;;;;;;;;;643958;217;919191;-72
2021/01/03 07:46:36;;;;;;;264.87;130.17;;;;;;;;;;647289;215;914235;-70
2021/01/03 07:49:02;;;;;;;217.50;106.53;;;;;;;;;;647243;216;919010;-71
2021/01/03 07:51:34;;;;;;;206.40;100.00;;;;;;;;;;642101;215;918190;-72
2021/01/03 07:54:00;;;;;;;200.30;96.27;;;;;;;;;;643013;216;918853;-70
2021/01/03 07:56:25;;;;;;;192.37;88.30;;;;;;;;;;641181;215;939489;-70
2021/01/03 07:58:53;;;;;;;196.20;80.95;;;;;;;;;;645765;215;1415130;-71
2021/01/03 08:01:19;;;;;;;175.70;80.83;;;;;;;;;;644362;216;918927;-70
2021/01/03 08:03:45;;;;;;;163.67;80.27;;;;;;;;;;644253;216;918583;-71
2021/01/03 08:06:11;;;;;;;155.70;67.15;;;;;;;;;;645649;215;918761;-71
2021/01/03 08:08:37;;;;;;;137.60;64.40;;;;;;;;;;644488;217;917961;-70
2021/01/03 08:11:04;;;;;;;150.47;77.37;;;;;;;;;;640959;217;919995;-71
2021/01/03 08:13:31;;;;;;;144.33;73.23;;;;;;;;;;643098;217;919246;-69
2021/01/03 08:15:57;;;;;;;177.70;84.20;;;;;;;;;;645877;216;1029117;-71
2021/01/03 08:18:23;;;;;;;170.03;85.90;;;;;;;;;;643312;216;918656;-71
2021/01/03 08:20:50;;;;;;;196.15;92.65;;;;;;;;;;640986;216;920129;-70
2021/01/03 08:23:17;;;;;;;195.47;89.43;;;;;;;;;;649306;216;914160;-70
2021/01/03 08:25:43;;;;;;;185.10;88.17;;;;;;;;;;643407;216;919119;-70
2021/01/03 08:28:12;;;;;;;195.83;94.83;;;;;;;;;;645620;217;919056;-71
2021/01/03 08:30:38;;;;;;;202.77;101.10;;;;;;;;;;644304;217;920548;-69
2021/01/03 08:33:08;;;;;;;196.73;95.43;;;;;;;;;;647880;217;919331;-70
2021/01/03 08:35:33;;;;;;;182.87;91.27;;;;;;;;;;642734;217;920553;-70
2021/01/03 08:37:59;;;;;;;213.53;101.37;;;;;;;;;;641335;216;927947;-71
2021/01/03 08:40:25;;;;;;;189.87;92.27;;;;;;;;;;647883;216;1018558;-71
2021/01/03 08:43:06;;;;;;;202.20;97.65;;;;;;;;;;642578;216;1129921;-71
2021/01/03 08:45:32;;;;;;;202.60;100.03;;;;;;;;;;644382;215;914042;-70
2021/01/03 08:47:59;;;;;;;223.80;107.47;;;;;;;;;;640922;215;914392;-70
2021/01/03 08:50:25;;;;;;;193.23;98.18;;;;;;;;;;644059;216;918972;-71
2021/01/03 08:52:54;;;;;;;179.30;97.50;;;;;;;;;;645389;216;629477;-70
2021/01/03 08:55:20;;;;;;;206.80;94.77;;;;;;;;;;647734;216;627949;-69
2021/01/03 08:57:45;;;;;;;179.30;85.10;;;;;;;;;;644739;215;625475;-71
2021/01/03 09:00:12;;;;;;;176.03;85.53;;;;;;;;;;649439;217;631142;-70
2021/01/03 09:02:37;;;;;;;167.67;85.40;;;;;;;;;;645000;216;651997;-71
2021/01/03 09:05:04;;;;;;;188.13;98.27;;;;;;;;;;647541;217;624944;-71
2021/01/03 09:07:29;;;;;;;149.77;72.80;;;;;;;;;;649393;217;624611;-71
2021/01/03 09:09:55;;;;;;;167.83;79.27;;;;;;;;;;647294;217;652661;-70
2021/01/03 09:12:27;;;;;;;166.57;81.57;;;;;;;;;;648715;217;620691;-69
2021/01/03 09:14:53;;;;;;;167.83;77.53;;;;;;;;;;647632;217;616386;-70
2021/01/03 09:17:19;;;;;;;152.83;82.43;;;;;;;;;;650281;215;635577;-70
2021/01/03 09:19:48;;;;;;;177.43;84.97;;;;;;;;;;645384;216;631305;-70
2021/01/03 09:22:19;;;;;;;146.67;68.53;;;;;;;;;;646576;216;626425;-70
2021/01/03 09:24:45;;;;;;;133.73;67.27;;;;;;;;;;644372;216;1059160;-70
2021/01/03 09:27:11;;;;;;;147.00;71.73;;;;;;;;;;651394;216;626613;-70
2021/01/03 09:29:37;;;;;;;132.30;60.17;;;;;;;;;;645317;216;628877;-70
2021/01/03 09:32:06;;;;;;;171.73;87.37;;;;;;;;;;647545;216;630444;-69
2021/01/03 09:34:35;;;;;;;130.10;62.27;;;;;;;;;;648618;215;625500;-70
2021/01/03 09:37:05;;;;;;;145.10;67.70;;;;;;;;;;650600;215;631124;-71
2021/01/03 09:39:32;;;;;;;137.40;64.47;;;;;;;;;;642340;215;634361;-70
2021/01/03 09:41:59;;;;;;;136.17;63.63;;;;;;;;;;647460;216;633719;-68
2021/01/03 09:44:27;;;;;;;134.03;60.73;;;;;;;;;;650065;215;626325;-69
2021/01/03 09:46:54;;;;;;;126.13;65.07;;;;;;;;;;645233;216;630562;-69
2021/01/03 09:49:20;;;;;;;130.67;60.77;;;;;;;;;;645191;215;689144;-68
2021/01/03 09:51:52;;;;;;;142.17;70.67;;;;;;;;;;647062;217;627120;-68
2021/01/03 09:54:18;;;;;;;148.37;80.10;;;;;;;;;;649847;215;625101;-68
2021/01/03 09:56:45;;;;;;;142.30;74.80;;;;;;;;;;648144;215;621518;-69
2021/01/03 09:59:10;;;;;;;165.50;73.57;;;;;;;;;;648621;216;633391;-69
2021/01/03 10:01:36;;;;;;;150.38;70.55;;;;;;;;;;648449;217;624863;-69
2021/01/03 10:04:17;;;;;;;147.80;70.00;;;;;;;;;;647385;216;652283;-69
2021/01/03 10:06:43;;;;;;;160.00;82.90;;;;;;;;;;642850;216;631160;-67
2021/01/03 10:09:08;;;;;;;145.77;72.67;;;;;;;;;;646973;216;707068;-68
2021/01/03 10:11:34;;;;;;;123.07;60.93;;;;;;;;;;643703;215;918571;-67
2021/01/03 10:14:00;;;;;;;126.37;63.30;;;;;;;;;;645380;215;920520;-67
2021/01/03 10:16:26;;;;;;;130.93;61.17;;;;;;;;;;641753;216;920018;-67
2021/01/03 10:18:52;;;;;;;113.63;58.57;;;;;;;;;;641506;217;973558;-66
2021/01/03 10:21:19;;;;;;;168.97;83.50;;;;;;;;;;640760;216;954857;-67
2021/01/03 10:23:44;;;;;;;120.73;59.30;;;;;;;;;;637655;217;924194;-67
2021/01/03 10:26:16;;;;;;;97.17;51.07;;;;;;;;;;642437;215;917222;-67
2021/01/03 10:28:42;;;;;;;110.53;55.03;;;;;;;;;;643142;215;916224;-66
2021/01/03 10:31:08;;;;;;;107.45;56.15;;;;;;;;;;643317;216;915302;-67
2021/01/03 10:33:34;;;;;;;108.22;53.28;;;;;;;;;;643230;217;919844;-67
2021/01/03 10:35:59;;;;;;;115.35;58.00;;;;;;;;;;642820;216;1079649;-67
2021/01/03 10:38:25;;;;;;;133.33;64.60;;;;;;;;;;645766;217;922377;-66
2021/01/03 10:40:53;;;;;;;117.40;59.77;;;;;;;;;;642228;216;918760;-67
2021/01/03 10:43:19;;;;;;;121.27;65.90;;;;;;;;;;642506;217;1123402;-66
2021/01/03 10:45:44;;;;;;;134.73;72.77;;;;;;;;;;648617;215;918203;-67
2021/01/03 10:48:10;;;;;;;123.33;62.23;;;;;;;;;;642625;215;919875;-67
2021/01/03 10:50:36;;;;;;;116.40;58.70;;;;;;;;;;643592;215;994408;-67
2021/01/03 10:53:02;;;;;;;119.23;57.93;;;;;;;;;;642922;215;1187533;-66
2021/01/03 10:55:28;;;;;;;112.28;58.13;;;;;;;;;;646895;216;913814;-67
2021/01/03 10:57:56;;;;;;;108.90;54.37;;;;;;;;;;642202;215;932227;-67
2021/01/03 11:00:20;;;;;;;113.00;58.75;;;;;;;;;;644801;217;919369;-66
2021/01/03 11:02:46;;;;;;;126.73;64.67;;;;;;;;;;647251;216;919120;-66
2021/01/03 11:05:12;;;;;;;115.80;58.37;;;;;;;;;;643747;216;919628;-66
2021/01/03 11:07:38;;;;;;;115.60;61.47;;;;;;;;;;642041;216;919354;-66
2021/01/03 11:10:05;;;;;;;151.53;71.30;;;;;;;;;;649385;216;920092;-66
2021/01/03 11:12:31;;;;;;;126.53;59.87;;;;;;;;;;642904;216;918800;-70
2021/01/03 11:14:57;;;;;;;121.20;58.27;;;;;;;;;;642049;216;919251;-70
2021/01/03 11:17:23;;;;;;;103.20;52.25;;;;;;;;;;644994;215;988656;-66
2021/01/03 11:19:49;;;;;;;126.10;61.73;;;;;;;;;;631675;222;919352;-68
2021/01/03 11:22:16;;;;;;;236.43;117.50;;;;;;;;;;628631;222;923736;-66
2021/01/03 11:24:41;;;;;;;170.05;85.60;;;;;;;;;;627371;221;918957;-66
2021/01/03 11:27:07;;;;;;;129.23;66.73;;;;;;;;;;635641;222;816763;-66
2021/01/03 11:29:32;;;;;;;188.90;98.20;;;;;;;;;;625809;221;918909;-66
2021/01/03 11:31:58;;;;;;;166.23;88.20;;;;;;;;;;632173;221;915102;-66
2021/01/03 11:34:25;;;;;;;163.47;91.50;;;;;;;;;;646163;216;918949;-66
2021/01/03 11:36:51;;;;;;;142.87;78.50;;;;;;;;;;645570;216;919416;-66
2021/01/03 11:39:17;;;;;;;151.55;81.93;;;;;;;;;;641832;215;981224;-66
2021/01/03 11:41:42;;;;;;;154.60;82.37;;;;;;;;;;648565;216;918416;-66
2021/01/03 11:44:08;;;;;;;155.30;81.27;;;;;;;;;;640474;214;918552;-66
2021/01/03 11:46:34;;;;;;;127.50;65.10;;;;;;;;;;644067;216;922295;-67
2021/01/03 11:49:00;;;;;;;147.53;75.93;;;;;;;;;;641203;216;918816;-67
2021/01/03 11:51:26;;;;;;;108.37;51.90;;;;;;;;;;648359;215;916915;-66
2021/01/03 11:53:52;;;;;;;92.40;48.73;;;;;;;;;;641269;216;917842;-66
2021/01/03 11:56:18;;;;;;;72.70;41.40;;;;;;;;;;643483;216;920832;-66
2021/01/03 11:58:44;;;;;;;103.30;57.27;;;;;;;;;;645528;217;1029795;-65
2021/01/03 12:01:10;;;;;;;77.40;44.73;;;;;;;;;;646352;215;925686;-66
2021/01/03 12:03:36;;;;;;;58.17;32.20;;;;;;;;;;646269;216;918582;-66
2021/01/03 12:06:02;;;;;;;57.77;34.80;;;;;;;;;;646970;217;1020769;-66
2021/01/03 12:08:28;;;;;;;44.10;25.90;;;;;;;;;;644772;216;919007;-66
2021/01/03 12:10:54;;;;;;;45.17;27.87;;;;;;;;;;643242;216;919234;-66
2021/01/03 12:13:20;;;;;;;37.07;20.50;;;;;;;;;;643540;216;918449;-66
2021/01/03 12:15:46;;;;;;;37.27;21.60;;;;;;;;;;645642;217;919763;-66
2021/01/03 12:18:11;;;;;;;44.10;22.73;;;;;;;;;;643422;216;951848;-65
2021/01/03 12:20:37;;;;;;;34.00;20.00;;;;;;;;;;637050;215;1840356;-65
2021/01/03 12:23:05;;;;;;;38.53;19.40;;;;;;;;;;648851;216;919014;-66
2021/01/03 12:25:29;;;;;;;31.47;18.27;;;;;;;;;;644076;215;919304;-66
2021/01/03 12:27:55;;;;;;;73.43;42.37;;;;;;;;;;644049;216;1020495;-66
2021/01/03 12:30:21;;;;;;;62.08;36.65;;;;;;;;;;645680;216;919310;-68
2021/01/03 12:32:47;;;;;;;43.60;25.50;;;;;;;;;;643949;216;919696;-66
2021/01/03 12:35:14;;;;;;;53.15;32.63;;;;;;;;;;642391;216;1049724;-66
2021/01/03 12:37:39;;;;;;;57.20;34.10;;;;;;;;;;643083;215;918667;-65
2021/01/03 12:40:06;;;;;;;67.40;36.43;;;;;;;;;;646095;217;918377;-66
2021/01/03 12:42:33;;;;;;;87.97;40.20;;;;;;;;;;641632;216;1015539;-66
2021/01/03 12:44:59;;;;;;;74.15;39.35;;;;;;;;;;645552;216;919448;-66
2021/01/03 12:47:25;;;;;;;77.70;41.60;;;;;;;;;;647501;215;944740;-66
2021/01/03 12:49:50;;;;;;;79.80;41.60;;;;;;;;;;646168;217;920119;-66
2021/01/03 12:52:16;;;;;;;77.77;40.10;;;;;;;;;;642759;215;919289;-65
2021/01/03 12:54:42;;;;;;;79.37;43.27;;;;;;;;;;645398;217;916753;-66
2021/01/03 12:57:08;;;;;;;58.83;34.10;;;;;;;;;;641961;215;929805;-67
2021/01/03 12:59:34;;;;;;;71.07;36.10;;;;;;;;;;642761;215;921722;-66
2021/01/03 13:02:00;;;;;;;98.07;57.30;;;;;;;;;;643830;217;920215;-66
2021/01/03 13:04:26;;;;;;;81.33;42.70;;;;;;;;;;644303;215;939971;-67
2021/01/03 13:06:52;;;;;;;83.43;40.20;;;;;;;;;;641068;215;1046177;-67
2021/01/03 13:09:19;;;;;;;64.72;35.30;;;;;;;;;;643597;215;919800;-68
2021/01/03 13:11:43;;;;;;;84.47;38.97;;;;;;;;;;649155;215;911078;-68
2021/01/03 13:14:09;;;;;;;114.33;63.67;;;;;;;;;;643706;216;939058;-66
2021/01/03 13:16:35;;;;;;;204.18;96.60;;;;;;;;;;647637;215;913999;-66
2021/01/03 13:19:01;;;;;;;114.97;57.60;;;;;;;;;;646440;216;911655;-68
2021/01/03 13:21:27;;;;;;;82.67;44.87;;;;;;;;;;645124;215;914681;-67
2021/01/03 13:23:53;;;;;;;74.80;41.07;;;;;;;;;;645811;216;618727;-66
2021/01/03 13:26:19;;;;;;;69.10;40.73;;;;;;;;;;650452;216;915737;-67
2021/01/03 13:28:45;;;;;;;83.00;44.37;;;;;;;;;;642673;215;1330986;-66
2021/01/03 13:31:10;;;;;;;67.10;36.97;;;;;;;;;;645433;217;918786;-67
2021/01/03 13:33:36;;;;;;;77.03;39.90;;;;;;;;;;644853;216;825331;-66
2021/01/03 13:36:02;;;;;;;79.33;44.30;;;;;;;;;;652771;216;628111;-66
2021/01/03 13:38:29;;;;;;;85.23;41.90;;;;;;;;;;643836;216;919085;-66
2021/01/03 13:40:54;;;;;;;85.53;43.57;;;;;;;;;;644843;216;918588;-66
2021/01/03 13:43:20;;;;;;;88.87;46.17;;;;;;;;;;646889;217;918865;-66
2021/01/03 13:45:46;;;;;;;98.17;47.43;;;;;;;;;;645235;215;918195;-66
2021/01/03 13:48:12;;;;;;;109.70;51.47;;;;;;;;;;641637;217;919546;-69